LSGS Airport Information

Runway Information
Runway 07 Length 0 ft width 0 ft
Elevation 1578 ft Threshold 0 ft Heading 0
Runway 25 Length 0 ft Width 0 ft
Elevation 1581 ft Threshold 0 ft Heading 0
Runway 07L Length 1820 ft width 98 ft
Elevation 1578 ft Threshold 0 ft Heading 73
Runway 25R Length 1820 ft Width 98 ft
Elevation 1581 ft Threshold 328 ft Heading 253
Runway 07R Length 6562 ft width 131 ft
Elevation 1580 ft Threshold 164 ft Heading 73
Runway 25L Length 6562 ft Width 131 ft
Elevation 1585 ft Threshold 164 ft Heading 253
Airport Frequencies
Type A/G Name SWISS MILI Frequency 134.275 MHZ
Type APP Name RADAR Frequency 126.825 MHZ
Type GND Name GND Frequency 121.7 MHZ
Type INFO Name INFO Frequency 122.35 MHZ
Type TWR Name TWR Frequency 118.275 MHZ
Airport Navaids
Type VOR-DME Name Montana Frequency 115850 KHZ
Type VOR-DME Name Sion Frequency 112150 KHZ
Airport Weather Information & NOTAM
ADDS - METARS form results

(0201 UTC 19 September 2021)
Data provider http://aviationweather.gov/metar/data/
 
METAR text: LSGS 190150Z AUTO VRB03KT 9999 BKN060 15/14 Q1012
Conditions at: LSGS (SION (MIL/CIV/AU, CH) observed 0150 UTC 19 September 2021
Temperature: 15.0°C (59°F)
Dewpoint: 14.0°C (57°F) [RH = 94%]
Pressure (altimeter): 29.88 inches Hg (1012.0 mb)
Winds: variable direction winds at 3 MPH (3 knots; 1.5 m/s)
Visibility: 6 or more miles (10+ km)
Ceiling: 6000 feet AGL
Clouds: broken clouds at 6000 feet AGL
Weather: no significant weather observed at this time

METAR text: LSGS 190120Z AUTO VRB02KT 9999 FEW100 15/14 Q1012
Conditions at: LSGS (SION (MIL/CIV/AU, CH) observed 0120 UTC 19 September 2021
Temperature: 15.0°C (59°F)
Dewpoint: 14.0°C (57°F) [RH = 94%]
Pressure (altimeter): 29.88 inches Hg (1012.0 mb)
Winds: variable direction winds at 2 MPH (2 knots; 1.0 m/s)
Visibility: 6 or more miles (10+ km)
Ceiling: at least 12,000 feet AGL
Clouds: few clouds at 10000 feet AGL
Weather: no significant weather observed at this time

Forecast for: LSGS (SION (MIL/CIV/AU, CH)
Text: TAF LSGS 181425Z 1815/1824 25012KT 9999 FEW080
Forecast period: 1500 to 1800 UTC 18 September 2021
Forecast type: FROM: standard forecast or significant change
Winds: from the WSW (250 degrees) at 14 MPH (12 knots; 6.2 m/s)
Visibility: 6 or more miles (10+ km)
Ceiling: at least 12,000 feet AGL
Clouds: few clouds at 8000 feet AGL
Weather: no significant weather forecast for this period
Text: BECMG 1818/1820 VRB02KT
Forecast period: 1800 UTC 18 September 2021 to 0000 UTC 19 September 2021
Forecast type: BECOMING: Conditions expected to become as follows by 2000 UTC 18 September 2021
Winds: variable direction winds at 2 MPH (2 knots; 1.0 m/s)
Visibility: 6 or more miles (10+ km)
Ceiling: at least 12,000 feet AGL
Clouds: few clouds at 8000 feet AGL
Weather: no significant weather forecast for this period